Time;durP1;ratioP1;P1;durP2;ratioP2;P2;SDS_P1;SDS_P2;PMS_P1;PMS_P2;Temp;Humidity;BMP_temperature;BMP_pressure;BME280_temperature;BME280_humidity;BME280_pressure;Samples;Min_cycle;Max_cycle;Signal;HPM_P1;HPM_P2
2022/11/26 00:02:24;;;;;;;19.50;10.33;;;9.10;99.90;;;;;;5106911;27;20877;-31
2022/11/26 00:04:52;;;;;;;17.00;9.67;;;9.10;99.90;;;;;;5112274;27;20492;-35
2022/11/26 00:07:24;;;;;;;18.47;10.10;;;9.10;99.90;;;;;;5090014;28;20429;-37
2022/11/26 00:09:51;;;;;;;16.80;9.00;;;9.10;99.90;;;;;;5104507;28;20967;-31
2022/11/26 00:12:24;;;;;;;19.80;9.67;;;9.20;99.90;;;;;;5115185;27;21044;-30
2022/11/26 00:14:50;;;;;;;23.40;11.23;;;9.10;99.90;;;;;;5090038;28;20430;-33
2022/11/26 00:17:17;;;;;;;15.03;10.63;;;9.10;99.90;;;;;;5101492;28;20943;-32
2022/11/26 00:19:44;;;;;;;18.37;10.50;;;9.10;99.90;;;;;;5089381;28;20424;-29
2022/11/26 00:22:29;;;;;;;18.43;9.67;;;9.10;99.90;;;;;;5089897;28;20812;-33
2022/11/26 00:24:55;;;;;;;19.23;10.07;;;9.10;99.90;;;;;;5095721;28;20438;-37
2022/11/26 00:27:25;;;;;;;17.70;10.10;;;9.20;99.90;;;;;;5091722;28;20434;-34
2022/11/26 00:29:51;;;;;;;20.77;10.80;;;9.10;99.90;;;;;;5087932;28;20508;-35
2022/11/26 00:32:19;;;;;;;17.83;9.37;;;9.10;99.90;;;;;;5090146;28;20832;-36
2022/11/26 00:34:45;;;;;;;16.70;9.50;;;9.10;99.90;;;;;;5088536;28;20494;-35
2022/11/26 00:37:19;;;;;;;18.50;9.33;;;9.20;99.90;;;;;;5089718;28;20920;-35
2022/11/26 00:39:46;;;;;;;15.80;9.60;;;9.10;99.90;;;;;;5088676;28;20986;-33
2022/11/26 00:42:11;;;;;;;13.37;10.00;;;9.10;99.90;;;;;;5090435;28;20517;-33
2022/11/26 00:44:37;;;;;;;17.53;9.73;;;9.10;99.90;;;;;;5089298;28;20509;-35
2022/11/26 00:47:03;;;;;;;20.00;10.50;;;8.90;99.90;;;;;;5089606;28;20192;-31
2022/11/26 00:49:28;;;;;;;14.93;8.90;;;8.90;99.90;;;;;;5088927;28;20192;-36
2022/11/26 00:51:54;;;;;;;14.90;9.10;;;9.10;99.90;;;;;;5088203;28;20242;-34
2022/11/26 00:54:20;;;;;;;14.00;8.63;;;9.00;99.90;;;;;;5088556;28;20334;-35
2022/11/26 00:56:47;;;;;;;20.87;9.67;;;9.30;99.90;;;;;;5088888;28;20188;-34
2022/11/26 00:59:17;;;;;;;18.57;8.60;;;9.00;99.90;;;;;;5088787;28;20438;-35
2022/11/26 01:01:43;;;;;;;14.47;8.77;;;9.10;99.90;;;;;;5089348;28;20433;-34
2022/11/26 01:04:09;;;;;;;18.57;9.20;;;9.00;99.90;;;;;;5088762;28;20434;-36
2022/11/26 01:06:39;;;;;;;20.27;9.07;;;9.00;99.90;;;;;;5088736;28;20204;-32
2022/11/26 01:09:06;;;;;;;18.27;9.47;;;9.20;99.90;;;;;;5088429;28;20196;-35
2022/11/26 01:11:32;;;;;;;17.87;10.07;;;9.10;99.90;;;;;;5087539;28;20478;-33
2022/11/26 01:13:58;;;;;;;18.77;10.40;;;9.10;99.90;;;;;;5088868;28;20425;-31
2022/11/26 01:16:25;;;;;;;18.07;9.50;;;9.10;99.90;;;;;;5097270;28;20414;-38
2022/11/26 01:18:53;;;;;;;19.77;9.70;;;9.10;99.90;;;;;;5108862;28;20453;-37
2022/11/26 01:21:21;;;;;;;16.37;8.93;;;9.10;99.90;;;;;;5108784;28;20746;-35
2022/11/26 01:23:46;;;;;;;17.40;9.47;;;9.10;99.90;;;;;;5108981;28;20511;-37
2022/11/26 01:26:18;;;;;;;19.80;9.40;;;9.10;99.90;;;;;;5109080;28;20943;-38
2022/11/26 01:28:44;;;;;;;15.83;9.90;;;9.10;99.90;;;;;;5109140;28;20542;-35
2022/11/26 01:31:22;;;;;;;14.23;9.40;;;9.00;99.90;;;;;;5108871;28;20465;-36
2022/11/26 01:33:48;;;;;;;20.30;9.83;;;9.10;99.90;;;;;;5107637;28;20426;-35
2022/11/26 01:36:30;;;;;;;13.27;8.60;;;9.10;99.90;;;;;;5108864;28;20463;-34
2022/11/26 01:38:59;;;;;;;16.10;10.07;;;9.20;99.90;;;;;;5108732;28;20760;-35
2022/11/26 01:41:58;;;;;;;18.33;8.97;;;9.10;99.90;;;;;;5108590;28;20565;-33
2022/11/26 01:44:28;;;;;;;19.53;9.50;;;9.00;99.90;;;;;;5108561;28;20975;-36
2022/11/26 01:46:56;;;;;;;19.80;9.47;;;9.10;99.90;;;;;;5107686;28;20406;-31
2022/11/26 01:49:28;;;;;;;18.20;9.20;;;9.10;99.90;;;;;;5108660;28;20442;-37
2022/11/26 01:52:10;;;;;;;18.00;8.43;;;9.10;99.90;;;;;;5108701;28;20418;-34
2022/11/26 01:54:38;;;;;;;19.20;9.83;;;9.10;99.90;;;;;;5108423;28;20401;-33
2022/11/26 01:57:20;;;;;;;20.23;9.57;;;9.10;99.90;;;;;;5108759;28;20456;-35
2022/11/26 01:59:54;;;;;;;18.37;9.43;;;9.00;99.90;;;;;;5108409;28;20402;-37
2022/11/26 02:02:25;;;;;;;16.63;9.03;;;9.00;99.90;;;;;;5107254;28;20406;-35
2022/11/26 02:05:18;;;;;;;12.77;9.23;;;9.00;99.90;;;;;;5108646;28;20966;-32
2022/11/26 02:07:45;;;;;;;18.27;8.93;;;9.00;99.90;;;;;;5107981;28;20424;-32
2022/11/26 02:10:12;;;;;;;17.70;8.20;;;9.10;99.90;;;;;;5112906;28;20720;-33
2022/11/26 02:12:39;;;;;;;19.60;9.03;;;9.00;99.90;;;;;;5112416;28;20869;-33
2022/11/26 02:15:05;;;;;;;16.77;8.77;;;9.00;99.90;;;;;;5112878;28;20405;-32
2022/11/26 02:17:54;;;;;;;13.93;7.97;;;9.00;99.90;;;;;;5094448;28;20422;-32
2022/11/26 02:20:49;;;;;;;18.40;8.33;;;9.00;99.90;;;;;;5090910;28;20479;-36
2022/11/26 02:23:32;;;;;;;14.53;8.10;;;9.00;99.90;;;;;;5092065;28;20410;-36
2022/11/26 02:26:31;;;;;;;18.93;8.37;;;9.00;99.90;;;;;;5092056;28;20398;-36
2022/11/26 02:29:09;;;;;;;16.80;8.40;;;9.00;99.90;;;;;;5091719;28;20407;-35
2022/11/26 02:31:59;;;;;;;17.13;8.47;;;8.90;99.90;;;;;;5090679;28;20457;-35
2022/11/26 02:34:44;;;;;;;14.80;8.83;;;9.00;99.90;;;;;;5091999;28;20818;-32
2022/11/26 02:37:17;;;;;;;13.77;8.07;;;9.00;99.90;;;;;;5092045;28;20419;-35
2022/11/26 02:39:43;;;;;;;14.10;8.60;;;8.90;99.90;;;;;;5091567;28;20427;-37
2022/11/26 02:42:27;;;;;;;19.17;8.83;;;8.90;99.90;;;;;;5091883;28;20417;-36
2022/11/26 02:44:57;;;;;;;17.17;8.00;;;8.80;99.90;;;;;;5092206;28;20184;-31
2022/11/26 02:47:27;;;;;;;16.90;9.33;;;8.80;99.90;;;;;;5091916;28;20494;-33
2022/11/26 02:49:55;;;;;;;21.73;10.07;;;8.90;99.90;;;;;;5091065;28;20453;-34
2022/11/26 02:52:23;;;;;;;15.33;9.00;;;8.80;99.90;;;;;;5091538;28;20816;-32
2022/11/26 02:54:51;;;;;;;19.53;9.00;;;8.70;99.90;;;;;;5091426;28;20461;-35
2022/11/26 02:57:20;;;;;;;12.17;7.67;;;8.60;99.90;;;;;;5091401;28;20409;-37
2022/11/26 02:59:46;;;;;;;16.37;9.70;;;8.60;99.90;;;;;;5091499;28;20759;-35
2022/11/26 03:02:42;;;;;;;18.60;9.97;;;8.50;99.90;;;;;;5091556;28;20414;-34
2022/11/26 03:05:10;;;;;;;17.50;10.33;;;8.60;99.90;;;;;;5091352;28;20460;-33
2022/11/26 03:07:36;;;;;;;13.53;8.10;;;8.50;99.90;;;;;;5091282;28;20422;-37
2022/11/26 03:10:04;;;;;;;16.40;9.63;;;8.50;99.90;;;;;;5090921;28;20462;-36
2022/11/26 03:12:30;;;;;;;12.70;8.27;;;8.40;99.90;;;;;;5091413;28;20834;-34
2022/11/26 03:14:56;;;;;;;12.63;8.63;;;8.50;99.90;;;;;;5091071;28;20444;-32
2022/11/26 03:17:22;;;;;;;19.10;9.27;;;8.40;99.90;;;;;;5107915;28;20183;-37
2022/11/26 03:19:47;;;;;;;14.73;8.77;;;8.30;99.90;;;;;;5111164;28;20190;-30
2022/11/26 03:22:15;;;;;;;15.73;11.47;;;8.30;99.90;;;;;;5111620;28;20442;-37
2022/11/26 03:24:41;;;;;;;18.47;8.87;;;8.20;99.90;;;;;;5111160;28;20214;-37
2022/11/26 03:27:06;;;;;;;14.50;9.50;;;8.30;99.90;;;;;;5111537;28;20466;-33
2022/11/26 03:29:32;;;;;;;21.27;10.57;;;8.20;99.90;;;;;;5110912;28;20967;-32
2022/11/26 03:31:58;;;;;;;14.90;9.87;;;8.40;99.90;;;;;;5111619;28;20214;-34
2022/11/26 03:34:24;;;;;;;17.63;9.53;;;8.30;99.90;;;;;;5110004;28;20263;-35
2022/11/26 03:36:50;;;;;;;14.07;9.80;;;8.10;99.90;;;;;;5111018;28;20509;-35
2022/11/26 03:39:15;;;;;;;19.27;11.03;;;8.10;99.90;;;;;;5110857;28;20184;-32
2022/11/26 03:41:43;;;;;;;18.60;11.00;;;8.30;99.90;;;;;;5111044;28;20179;-31
2022/11/26 03:44:12;;;;;;;20.13;10.60;;;8.20;99.90;;;;;;5110980;28;20183;-33
2022/11/26 03:46:39;;;;;;;16.10;9.73;;;8.10;99.90;;;;;;5111043;28;20417;-33
2022/11/26 03:49:05;;;;;;;19.67;10.70;;;8.00;99.90;;;;;;5111134;28;20776;-37
2022/11/26 03:51:31;;;;;;;16.30;9.70;;;7.90;99.90;;;;;;5110530;28;20504;-31
2022/11/26 03:53:56;;;;;;;20.27;10.10;;;8.10;99.90;;;;;;5110781;28;20863;-34
2022/11/26 03:56:22;;;;;;;15.47;9.67;;;8.10;99.90;;;;;;5110794;28;20650;-34
2022/11/26 03:58:48;;;;;;;18.87;10.93;;;8.20;99.90;;;;;;5110710;28;20290;-36
2022/11/26 04:01:13;;;;;;;17.13;10.80;;;8.00;99.90;;;;;;5110724;28;20238;-31
2022/11/26 04:03:40;;;;;;;17.27;9.90;;;7.90;99.90;;;;;;5110540;28;20198;-36
2022/11/26 04:06:06;;;;;;;22.20;10.83;;;7.90;99.90;;;;;;5110267;28;20691;-32
2022/11/26 04:08:32;;;;;;;25.50;11.23;;;8.00;99.90;;;;;;5110361;28;20412;-34
2022/11/26 04:10:57;;;;;;;18.83;10.83;;;8.10;99.90;;;;;;5108898;28;20457;-32
2022/11/26 04:13:23;;;;;;;17.20;11.10;;;8.00;99.90;;;;;;5110390;28;20181;-34
2022/11/26 04:15:49;;;;;;;21.90;10.40;;;8.10;99.90;;;;;;5107155;28;20895;-34
2022/11/26 04:18:15;;;;;;;17.47;10.90;;;8.00;99.90;;;;;;5096453;28;20179;-37
2022/11/26 04:20:41;;;;;;;17.97;9.83;;;7.90;99.90;;;;;;5110340;28;20754;-36
2022/11/26 04:23:06;;;;;;;18.10;9.80;;;8.10;99.90;;;;;;5110258;28;20410;-31
2022/11/26 04:25:32;;;;;;;18.83;11.73;;;8.00;99.90;;;;;;5109057;28;20203;-32
2022/11/26 04:27:58;;;;;;;15.33;9.43;;;8.00;99.90;;;;;;5110220;28;20187;-36
2022/11/26 04:30:24;;;;;;;19.23;10.57;;;8.00;99.90;;;;;;5109502;28;20545;-37
2022/11/26 04:32:50;;;;;;;17.10;11.13;;;8.10;99.90;;;;;;5109711;27;20718;-31
2022/11/26 04:35:15;;;;;;;16.57;10.50;;;8.00;99.90;;;;;;5109190;27;20188;-37
2022/11/26 04:37:41;;;;;;;14.20;10.37;;;8.20;99.90;;;;;;5109839;28;20193;-32
2022/11/26 04:40:07;;;;;;;22.57;10.43;;;8.00;99.90;;;;;;5109796;28;20193;-34
2022/11/26 04:42:34;;;;;;;16.77;9.67;;;8.30;99.90;;;;;;5109641;28;20263;-36
2022/11/26 04:44:59;;;;;;;19.20;11.67;;;8.00;99.90;;;;;;5109804;28;20413;-33
2022/11/26 04:47:25;;;;;;;24.73;10.97;;;8.00;99.90;;;;;;5110104;28;20428;-35
2022/11/26 04:49:50;;;;;;;17.67;11.70;;;8.10;99.90;;;;;;5109376;28;20191;-34
2022/11/26 04:52:17;;;;;;;21.07;11.27;;;8.00;99.90;;;;;;5109686;28;20535;-31
2022/11/26 04:54:43;;;;;;;16.20;10.40;;;8.10;99.90;;;;;;5109484;28;20572;-34
2022/11/26 04:57:09;;;;;;;13.40;9.90;;;8.00;99.90;;;;;;5109531;28;20418;-32
2022/11/26 04:59:34;;;;;;;14.77;9.60;;;8.00;99.90;;;;;;5109367;28;20187;-33
2022/11/26 05:02:00;;;;;;;21.40;10.57;;;8.00;99.90;;;;;;5108299;28;20182;-35
2022/11/26 05:04:27;;;;;;;16.33;11.13;;;8.00;99.90;;;;;;5109432;28;20211;-36
2022/11/26 05:06:53;;;;;;;18.43;10.87;;;8.10;99.90;;;;;;5109642;28;20188;-37
2022/11/26 05:09:19;;;;;;;16.37;9.90;;;8.20;99.90;;;;;;5107577;28;20535;-34
2022/11/26 05:11:44;;;;;;;16.30;10.53;;;8.00;99.90;;;;;;5109369;28;20487;-36
2022/11/26 05:14:10;;;;;;;18.43;8.87;;;8.00;99.90;;;;;;5107728;28;20198;-33
2022/11/26 05:16:35;;;;;;;18.40;10.20;;;8.00;99.90;;;;;;5109196;28;20187;-33
2022/11/26 05:19:01;;;;;;;17.20;10.27;;;8.00;99.90;;;;;;5108770;28;20188;-31
2022/11/26 05:21:27;;;;;;;20.10;11.53;;;8.00;99.90;;;;;;5109291;28;20203;-32
2022/11/26 05:23:52;;;;;;;19.97;10.57;;;8.20;99.90;;;;;;5108859;28;20224;-36
2022/11/26 05:26:18;;;;;;;22.77;12.50;;;8.10;99.90;;;;;;5109189;28;20441;-34
2022/11/26 05:28:44;;;;;;;17.57;10.70;;;8.10;99.90;;;;;;5109060;28;20180;-29
2022/11/26 05:31:10;;;;;;;22.10;11.60;;;8.00;99.90;;;;;;5109023;28;20250;-32
2022/11/26 05:33:36;;;;;;;19.40;11.77;;;8.00;99.90;;;;;;5107378;28;20547;-28
2022/11/26 05:36:02;;;;;;;21.33;11.60;;;8.00;99.90;;;;;;5108904;28;20416;-32
2022/11/26 05:38:28;;;;;;;19.67;13.20;;;8.00;99.90;;;;;;5108606;28;20184;-36
2022/11/26 05:40:53;;;;;;;19.57;12.30;;;8.10;99.90;;;;;;5107412;28;20923;-32
2022/11/26 05:43:19;;;;;;;21.40;12.10;;;8.10;99.90;;;;;;5108489;28;20202;-37
2022/11/26 05:45:45;;;;;;;23.27;13.20;;;8.00;99.90;;;;;;5108565;28;20214;-36
2022/11/26 05:48:11;;;;;;;20.63;13.10;;;8.20;99.90;;;;;;5108507;28;20187;-34
2022/11/26 05:50:37;;;;;;;15.30;11.60;;;7.90;99.90;;;;;;5108584;28;20294;-33
2022/11/26 05:53:03;;;;;;;24.07;13.53;;;7.90;99.90;;;;;;5108520;28;20995;-34
2022/11/26 05:55:28;;;;;;;19.87;13.13;;;8.10;99.90;;;;;;5108399;28;20211;-38
2022/11/26 05:57:54;;;;;;;22.47;12.90;;;8.00;99.90;;;;;;5108533;28;20506;-34
2022/11/26 06:00:20;;;;;;;18.20;12.13;;;7.90;99.90;;;;;;5108033;28;20188;-33
2022/11/26 06:02:45;;;;;;;19.70;12.77;;;7.90;99.90;;;;;;5108099;28;20665;-37
2022/11/26 06:05:11;;;;;;;17.23;12.50;;;8.00;99.90;;;;;;5108453;28;20207;-32
2022/11/26 06:07:36;;;;;;;22.13;13.00;;;8.00;99.90;;;;;;5108572;28;20183;-35
2022/11/26 06:10:03;;;;;;;20.20;13.40;;;7.90;99.90;;;;;;5107774;28;20975;-32
2022/11/26 06:12:29;;;;;;;24.33;12.10;;;8.10;99.90;;;;;;5108150;28;20228;-35
2022/11/26 06:14:54;;;;;;;21.97;13.40;;;8.00;99.90;;;;;;5108568;28;20410;-35
2022/11/26 06:17:20;;;;;;;22.97;13.27;;;8.10;99.90;;;;;;5090254;28;20180;-33
2022/11/26 06:19:45;;;;;;;17.60;12.40;;;8.10;99.90;;;;;;5087590;28;20283;-37
2022/11/26 06:22:11;;;;;;;26.60;13.50;;;8.00;99.90;;;;;;5088095;28;20234;-32
2022/11/26 06:24:37;;;;;;;22.90;13.53;;;7.90;99.90;;;;;;5087735;28;20187;-31
2022/11/26 06:27:03;;;;;;;21.27;12.80;;;7.90;99.90;;;;;;5087696;28;20181;-35
2022/11/26 06:29:28;;;;;;;22.80;12.43;;;7.80;99.90;;;;;;5087619;28;20192;-31
2022/11/26 06:31:54;;;;;;;21.00;13.33;;;7.90;99.90;;;;;;5087468;28;20561;-34
2022/11/26 06:34:20;;;;;;;18.60;11.93;;;7.90;99.90;;;;;;5086743;28;20187;-32
2022/11/26 06:36:45;;;;;;;19.23;12.47;;;7.90;99.90;;;;;;5087740;28;20263;-34
2022/11/26 06:39:11;;;;;;;27.80;13.07;;;8.00;99.90;;;;;;5086346;28;20319;-36
2022/11/26 06:41:37;;;;;;;21.57;12.43;;;8.00;99.90;;;;;;5086538;28;20262;-35
2022/11/26 06:44:03;;;;;;;23.03;13.30;;;8.00;99.90;;;;;;5087955;28;20189;-35
2022/11/26 06:46:29;;;;;;;19.33;13.00;;;7.90;99.90;;;;;;5100997;28;20612;-35
2022/11/26 06:48:59;;;;;;;19.90;11.97;;;7.80;99.90;;;;;;5106633;28;20417;-35
2022/11/26 06:51:26;;;;;;;22.30;12.90;;;7.90;99.90;;;;;;5108110;28;20203;-33
2022/11/26 06:53:52;;;;;;;18.37;10.63;;;7.80;99.90;;;;;;5109070;28;20445;-32
2022/11/26 06:56:18;;;;;;;23.80;12.17;;;7.80;99.90;;;;;;5112260;27;20413;-37
2022/11/26 06:58:45;;;;;;;21.60;11.87;;;7.70;99.90;;;;;;5112009;28;20413;-32
2022/11/26 07:01:17;;;;;;;15.50;11.60;;;7.80;99.90;;;;;;5111565;28;20230;-34
2022/11/26 07:03:43;;;;;;;22.20;12.00;;;7.70;99.90;;;;;;5111822;28;20416;-35
2022/11/26 07:06:20;;;;;;;19.43;10.73;;;7.70;99.90;;;;;;5111773;28;20425;-30
2022/11/26 07:08:45;;;;;;;18.60;11.50;;;7.70;99.90;;;;;;5111598;28;20186;-37
2022/11/26 07:11:11;;;;;;;23.07;11.80;;;7.70;99.90;;;;;;5111704;28;20453;-35
2022/11/26 07:13:37;;;;;;;20.83;11.90;;;7.80;99.90;;;;;;5111217;28;20172;-37
2022/11/26 07:16:04;;;;;;;20.43;11.43;;;7.60;99.90;;;;;;5106136;28;20959;-31
2022/11/26 07:18:30;;;;;;;20.43;12.10;;;7.70;99.90;;;;;;5090831;28;20187;-35
2022/11/26 07:20:56;;;;;;;17.53;11.70;;;7.60;99.90;;;;;;5091734;28;20422;-34
2022/11/26 07:23:22;;;;;;;17.90;10.90;;;7.70;99.90;;;;;;5090863;28;20456;-32
2022/11/26 07:25:47;;;;;;;18.10;11.27;;;7.70;99.90;;;;;;5089728;28;20422;-31
2022/11/26 07:28:13;;;;;;;21.90;11.53;;;7.80;99.90;;;;;;5090983;28;20188;-32
2022/11/26 07:30:39;;;;;;;20.37;11.20;;;7.70;99.90;;;;;;5090751;28;20220;-37
2022/11/26 07:33:04;;;;;;;19.50;11.10;;;7.60;99.90;;;;;;5089928;28;20169;-34
2022/11/26 07:35:31;;;;;;;16.30;10.67;;;7.60;99.90;;;;;;5098775;28;20208;-31
2022/11/26 07:37:57;;;;;;;18.87;11.77;;;7.70;99.90;;;;;;5092017;28;20275;-32
2022/11/26 07:40:23;;;;;;;20.20;10.93;;;7.50;99.90;;;;;;5090331;28;20856;-32
2022/11/26 07:42:49;;;;;;;19.80;10.53;;;7.60;99.90;;;;;;5096548;28;20528;-34
2022/11/26 07:45:15;;;;;;;20.37;10.90;;;7.40;99.90;;;;;;5102880;28;20553;-35
2022/11/26 07:47:40;;;;;;;15.70;10.63;;;7.60;99.90;;;;;;5110705;28;20191;-29
2022/11/26 07:50:07;;;;;;;19.97;12.07;;;7.50;99.90;;;;;;5110463;28;20674;-35
2022/11/26 07:52:33;;;;;;;20.00;10.50;;;7.70;99.90;;;;;;5110781;28;20176;-29
2022/11/26 07:54:59;;;;;;;20.40;10.17;;;7.50;99.90;;;;;;5111161;28;20410;-32
2022/11/26 07:57:24;;;;;;;14.60;9.07;;;7.60;99.90;;;;;;5111232;28;20183;-37
2022/11/26 07:59:50;;;;;;;13.73;9.17;;;7.70;99.90;;;;;;5110422;27;20569;-32
2022/11/26 08:02:16;;;;;;;19.40;11.27;;;7.90;99.90;;;;;;5110951;28;20523;-35
2022/11/26 08:04:41;;;;;;;15.43;9.37;;;7.70;99.90;;;;;;5091224;28;20183;-32
2022/11/26 08:07:07;;;;;;;15.50;9.70;;;7.80;99.90;;;;;;5099481;28;20462;-31
2022/11/26 08:09:33;;;;;;;21.03;12.70;;;8.10;99.90;;;;;;5105953;28;20226;-32
2022/11/26 08:11:59;;;;;;;17.27;10.57;;;8.10;99.90;;;;;;5106300;27;20466;-33
2022/11/26 08:14:25;;;;;;;17.50;9.50;;;8.40;99.90;;;;;;5109889;28;20186;-35
2022/11/26 08:16:51;;;;;;;24.87;11.70;;;8.20;99.90;;;;;;5110498;28;20184;-31
2022/11/26 08:19:16;;;;;;;19.87;10.67;;;8.40;99.90;;;;;;5110240;28;20413;-32
2022/11/26 08:21:42;;;;;;;15.20;8.90;;;8.40;99.90;;;;;;5109389;28;20553;-32
2022/11/26 08:24:13;;;;;;;19.50;10.57;;;8.50;99.90;;;;;;5110693;28;20627;-38
2022/11/26 08:26:39;;;;;;;16.07;9.30;;;8.60;99.90;;;;;;5110368;28;20190;-32
2022/11/26 08:29:04;;;;;;;17.77;9.57;;;8.70;99.90;;;;;;5109853;28;20780;-30
2022/11/26 08:31:31;;;;;;;17.33;8.37;;;8.70;99.90;;;;;;5110303;28;20216;-34
2022/11/26 08:33:58;;;;;;;18.57;8.77;;;8.90;99.90;;;;;;5099835;28;20192;-32
2022/11/26 08:36:24;;;;;;;18.40;8.57;;;8.90;99.90;;;;;;5095753;28;20869;-34
2022/11/26 08:38:50;;;;;;;15.93;9.00;;;9.00;99.90;;;;;;5107179;28;20524;-35
2022/11/26 08:41:16;;;;;;;12.60;7.43;;;9.00;99.90;;;;;;5109943;28;20870;-35
2022/11/26 08:43:41;;;;;;;14.07;8.00;;;9.10;99.90;;;;;;5109729;28;20686;-36
2022/11/26 08:46:09;;;;;;;14.50;8.00;;;9.20;99.90;;;;;;5109941;28;20705;-36
2022/11/26 08:48:35;;;;;;;11.80;8.63;;;9.30;99.90;;;;;;5109454;27;20179;-34
2022/11/26 08:51:04;;;;;;;12.27;7.33;;;9.40;99.90;;;;;;5109234;28;20984;-30
2022/11/26 08:53:31;;;;;;;17.73;9.50;;;9.50;99.90;;;;;;5109296;28;20425;-32
2022/11/26 08:56:07;;;;;;;13.13;7.10;;;9.60;99.90;;;;;;5108328;28;20512;-38
2022/11/26 08:58:34;;;;;;;15.10;7.50;;;9.70;99.90;;;;;;5109400;28;20405;-34
2022/11/26 09:01:07;;;;;;;13.20;8.60;;;9.80;99.90;;;;;;5109687;28;20409;-34
2022/11/26 09:03:33;;;;;;;17.13;7.87;;;9.90;99.90;;;;;;5109414;28;20418;-35
2022/11/26 09:06:03;;;;;;;16.60;8.20;;;10.00;99.90;;;;;;5109057;28;20510;-31
2022/11/26 09:08:30;;;;;;;18.00;7.63;;;10.10;99.90;;;;;;5101903;28;20212;-34
2022/11/26 09:10:57;;;;;;;15.93;8.03;;;10.10;99.90;;;;;;5088906;28;20481;-30
2022/11/26 09:13:22;;;;;;;12.70;7.47;;;10.10;99.90;;;;;;5088742;28;20414;-35
2022/11/26 09:15:49;;;;;;;15.80;9.23;;;10.20;99.90;;;;;;5092219;28;20413;-36
2022/11/26 09:18:15;;;;;;;14.53;8.10;;;10.20;99.90;;;;;;5109103;28;20248;-37
2022/11/26 09:20:41;;;;;;;15.20;8.77;;;10.20;99.90;;;;;;5108696;28;20691;-34
2022/11/26 09:23:06;;;;;;;14.10;7.17;;;10.30;99.90;;;;;;5109136;28;20751;-35
2022/11/26 09:25:32;;;;;;;14.23;8.73;;;10.40;99.90;;;;;;5109408;28;20240;-32
2022/11/26 09:27:57;;;;;;;12.80;7.80;;;10.50;99.90;;;;;;5109010;28;20682;-35
2022/11/26 09:30:23;;;;;;;16.80;9.00;;;10.60;99.90;;;;;;5108691;28;20205;-35
2022/11/26 09:32:49;;;;;;;18.37;7.53;;;10.70;99.90;;;;;;5108665;28;20233;-35
2022/11/26 09:35:14;;;;;;;17.97;7.43;;;10.90;99.90;;;;;;5108193;28;20183;-32
2022/11/26 09:37:40;;;;;;;13.90;7.00;;;11.10;99.90;;;;;;5108954;28;20625;-35
2022/11/26 09:40:06;;;;;;;17.90;8.80;;;11.20;99.90;;;;;;5108669;28;20544;-34
2022/11/26 09:42:44;;;;;;;12.67;6.80;;;11.20;99.90;;;;;;5108670;28;20246;-30
2022/11/26 09:45:31;;;;;;;11.57;5.70;;;11.30;99.90;;;;;;5108987;28;20438;-36
2022/11/26 09:47:58;;;;;;;14.77;6.50;;;11.50;99.90;;;;;;5104571;28;20517;-35
2022/11/26 09:50:30;;;;;;;12.37;6.77;;;11.50;99.90;;;;;;5107277;28;20547;-37
2022/11/26 09:53:04;;;;;;;13.47;6.20;;;11.60;99.90;;;;;;5108515;28;20417;-38
2022/11/26 09:55:39;;;;;;;10.83;6.40;;;11.80;99.90;;;;;;5108622;28;20421;-31
2022/11/26 09:58:17;;;;;;;12.73;5.47;;;11.90;99.90;;;;;;5108501;28;20443;-33
2022/11/26 10:00:46;;;;;;;16.03;6.20;;;12.00;99.90;;;;;;5108474;28;20417;-35
2022/11/26 10:03:18;;;;;;;13.00;6.43;;;12.10;99.90;;;;;;5108490;28;20401;-33
2022/11/26 10:06:17;;;;;;;10.63;5.50;;;12.40;99.90;;;;;;5108731;28;20959;-37
2022/11/26 10:08:48;;;;;;;10.10;5.93;;;12.60;99.90;;;;;;5108252;28;20413;-35
2022/11/26 10:11:20;;;;;;;9.90;5.10;;;12.90;99.90;;;;;;5108943;28;20575;-35
2022/11/26 10:13:58;;;;;;;7.67;5.57;;;13.00;99.90;;;;;;5106538;28;20435;-36
2022/11/26 10:17:05;;;;;;;10.60;6.03;;;13.00;99.90;;;;;;5098969;28;20981;-36
2022/11/26 10:19:48;;;;;;;9.90;6.83;;;12.90;99.90;;;;;;5095403;28;20409;-34
2022/11/26 10:22:29;;;;;;;11.93;5.73;;;12.80;99.90;;;;;;5088315;28;20754;-34
2022/11/26 10:24:56;;;;;;;9.57;5.37;;;12.70;99.90;;;;;;5088324;28;20406;-33
2022/11/26 10:27:25;;;;;;;11.80;5.30;;;12.60;99.90;;;;;;5096149;28;20425;-33
2022/11/26 10:30:21;;;;;;;10.27;5.30;;;12.50;99.90;;;;;;5092936;28;20516;-33
2022/11/26 10:32:49;;;;;;;13.83;4.80;;;12.30;99.90;;;;;;5096717;28;20430;-32
2022/11/26 10:35:23;;;;;;;9.40;4.17;;;12.20;99.90;;;;;;5107748;28;20405;-35
2022/11/26 10:37:50;;;;;;;7.73;4.63;;;12.10;99.90;;;;;;5101869;28;20511;-36
2022/11/26 10:40:31;;;;;;;9.07;4.47;;;12.10;99.90;;;;;;5101245;28;20410;-34
2022/11/26 10:43:09;;;;;;;8.63;4.77;;;12.00;99.90;;;;;;5101342;28;20402;-32
2022/11/26 10:45:50;;;;;;;12.70;4.60;;;11.90;99.90;;;;;;5100352;28;20409;-36
2022/11/26 10:48:25;;;;;;;7.80;3.40;;;11.80;99.90;;;;;;5101429;28;20429;-32
2022/11/26 10:51:01;;;;;;;6.60;4.00;;;11.80;99.90;;;;;;5100444;28;20446;-31
2022/11/26 10:53:29;;;;;;;13.63;4.70;;;11.70;99.90;;;;;;5099697;28;20889;-34
2022/11/26 10:56:00;;;;;;;6.40;3.60;;;11.70;99.90;;;;;;5100295;28;20779;-34
2022/11/26 10:58:46;;;;;;;8.07;4.10;;;11.50;99.90;;;;;;5101046;28;20874;-35
2022/11/26 11:01:14;;;;;;;11.60;4.87;;;11.50;99.90;;;;;;5098902;28;20777;-31
2022/11/26 11:04:23;;;;;;;8.97;3.70;;;11.40;99.90;;;;;;5101624;28;20487;-34
2022/11/26 11:06:49;;;;;;;11.40;3.67;;;11.40;99.90;;;;;;5088232;28;20488;-32
2022/11/26 11:09:25;;;;;;;10.40;3.83;;;11.60;99.90;;;;;;5097284;27;20442;-34
2022/11/26 11:12:16;;;;;;;10.23;3.60;;;11.70;99.90;;;;;;5103068;28;20493;-36
2022/11/26 11:14:43;;;;;;;11.30;3.80;;;11.70;99.90;;;;;;5101004;28;20839;-34
2022/11/26 11:17:39;;;;;;;6.37;3.53;;;11.70;99.90;;;;;;5101009;28;20449;-34
2022/11/26 11:20:14;;;;;;;10.00;3.70;;;11.70;99.90;;;;;;5091666;28;20413;-36
2022/11/26 11:22:44;;;;;;;6.80;3.40;;;11.80;99.90;;;;;;5106639;28;20405;-35
2022/11/26 11:25:31;;;;;;;9.37;3.77;;;11.80;99.90;;;;;;5111621;28;20416;-34
2022/11/26 11:28:18;;;;;;;5.80;3.27;;;11.70;99.90;;;;;;5111902;28;20405;-36
2022/11/26 11:30:45;;;;;;;11.37;3.80;;;11.70;99.90;;;;;;5111019;28;20441;-32
2022/11/26 11:33:11;;;;;;;7.63;3.20;;;11.60;99.90;;;;;;5110168;28;20405;-32
2022/11/26 11:35:37;;;;;;;12.20;3.57;;;11.60;99.90;;;;;;5101548;28;20411;-35
2022/11/26 11:38:02;;;;;;;9.80;3.63;;;11.60;99.90;;;;;;5090973;28;20342;-33
2022/11/26 11:40:29;;;;;;;15.17;4.13;;;11.60;99.90;;;;;;5090192;28;20196;-34
2022/11/26 11:43:01;;;;;;;9.60;4.43;;;11.50;99.90;;;;;;5090596;28;20633;-33
2022/11/26 11:45:33;;;;;;;6.17;3.20;;;11.50;99.90;;;;;;5090625;28;20411;-35
2022/11/26 11:48:46;;;;;;;11.53;3.23;;;11.50;99.90;;;;;;5090863;28;20921;-32
2022/11/26 11:51:34;;;;;;;6.77;3.20;;;11.40;99.90;;;;;;5090576;28;20503;-38
2022/11/26 11:54:24;;;;;;;8.20;3.70;;;11.50;99.90;;;;;;5090446;28;20445;-33
2022/11/26 11:57:14;;;;;;;9.77;4.20;;;11.50;99.90;;;;;;5090507;28;20775;-33
2022/11/26 12:02:44;;;;;;;10.80;3.70;;;11.50;99.90;;;;;;5090273;28;20768;-33
2022/11/26 12:05:42;;;;;;;8.30;3.63;;;11.50;99.90;;;;;;5090070;28;20426;-29
2022/11/26 12:08:42;;;;;;;8.80;3.40;;;11.50;99.90;;;;;;5087010;28;20937;-37
2022/11/26 12:11:23;;;;;;;11.90;4.37;;;11.50;99.90;;;;;;5090126;28;20478;-29
2022/11/26 12:14:01;;;;;;;18.67;5.23;;;11.40;99.90;;;;;;5090105;28;20411;-35
2022/11/26 12:16:33;;;;;;;10.40;3.77;;;11.40;99.90;;;;;;5099017;28;20425;-34
2022/11/26 12:19:04;;;;;;;9.17;3.40;;;11.40;99.90;;;;;;5110166;28;20457;-33
2022/11/26 12:22:03;;;;;;;8.13;2.93;;;11.40;99.90;;;;;;5110295;27;20441;-31
2022/11/26 12:25:00;;;;;;;12.87;3.57;;;11.30;99.90;;;;;;5100509;28;20422;-35
2022/11/26 12:27:59;;;;;;;8.70;3.23;;;11.30;99.90;;;;;;5110336;28;20436;-35
2022/11/26 12:30:35;;;;;;;12.07;3.27;;;11.20;99.90;;;;;;5084051;28;20485;-31
2022/11/26 12:33:19;;;;;;;8.23;3.80;;;11.20;99.90;;;;;;5088402;28;20495;-33
2022/11/26 12:35:52;;;;;;;8.87;3.47;;;11.20;99.90;;;;;;5090325;28;20888;-33
2022/11/26 12:38:33;;;;;;;10.97;3.80;;;11.20;99.90;;;;;;5089580;28;20410;-32
2022/11/26 12:41:10;;;;;;;10.13;4.80;;;11.20;99.90;;;;;;5089840;28;20829;-35
2022/11/26 12:44:02;;;;;;;14.70;3.73;;;11.20;99.90;;;;;;5089384;28;20522;-32
2022/11/26 12:46:50;;;;;;;11.33;4.10;;;11.20;99.90;;;;;;5089752;28;20821;-35
2022/11/26 12:49:23;;;;;;;9.80;3.67;;;11.20;99.90;;;;;;5068206;28;20449;-36
2022/11/26 12:52:01;;;;;;;8.47;3.97;;;11.20;99.90;;;;;;5089041;28;20867;-35
2022/11/26 12:54:44;;;;;;;11.87;4.57;;;11.20;99.90;;;;;;5089220;28;20485;-35
2022/11/26 12:57:23;;;;;;;12.27;4.13;;;11.10;99.90;;;;;;5089233;28;20406;-33
2022/11/26 13:00:11;;;;;;;14.33;3.40;;;11.10;99.90;;;;;;5089148;28;20672;-37
2022/11/26 13:02:41;;;;;;;9.90;3.47;;;11.10;99.90;;;;;;5089043;28;20463;-36